»·PEaware :: SWA4999 KSTL-KPHL

SWA4999 :: KSTL-KPHL

FLIGHT INFORMATION

Flight Status: Arrived
Operator:
Southwest Airlines
More flights by this operator :: More flights under this callsign
Pilot: Jamyson D. (13674)
Aircraft: BOEING 737-800
(B738)
More flights by this aircraft type
Origin: KSTL Lambert-St Louis Intl
United States
Destination: KPHL Philadelphia Intl
United States
More flights between these airports :: More routes between these airports
Route: JHART6 ROD J152 JST BOJID2
File this flight plan on PilotEdge
Remarks:
Altitude:
(Current/Filed)
39,000ft
Speed:
(Current/Filed)
428kts
Departed: 27-Mar-20 11:30 PM
Arrived: 28-Mar-20 01:04 AM
Distance/Time
Traveled:
705nm/1:34
Distance/Time
To Go:
Arrived

Flight Plot

Page will automatically refresh every two minutes.


Map Options




Map Legend


Flown Route
Filed Route
Departure Airport
Arrival Airport
Navaid (VOR, NDB)
Fix

Horizontal Profiles

Position Reports

Time Latitude Longitude Heading Altitude Ground
Speed
27-Mar-20 23:13 38.737283 -90.354312 217 557ft 0kts
27-Mar-20 23:14 38.737283 -90.354312 217 557ft 0kts
27-Mar-20 23:15 38.737283 -90.354312 217 557ft 0kts
27-Mar-20 23:16 38.737283 -90.354312 217 557ft 0kts
27-Mar-20 23:17 38.737283 -90.354312 217 557ft 0kts
27-Mar-20 23:18 38.737283 -90.354312 217 557ft 0kts
27-Mar-20 23:19 38.737288 -90.354307 217 557ft 1kts
27-Mar-20 23:21 38.737538 -90.353659 279 558ft 2kts
27-Mar-20 23:22 38.737441 -90.353356 303 559ft 0kts
27-Mar-20 23:23 38.737441 -90.353356 303 559ft 0kts
27-Mar-20 23:24 38.737441 -90.353356 303 559ft 0kts
27-Mar-20 23:25 38.737627 -90.353330 17 558ft 7kts
27-Mar-20 23:26 38.741033 -90.355894 302 550ft 29kts
27-Mar-20 23:27 38.745283 -90.364499 301 548ft 27kts
27-Mar-20 23:28 38.750574 -90.367792 7 541ft 19kts
27-Mar-20 23:29 38.751534 -90.365816 120 539ft 9kts
27-Mar-20 23:30 38.736944 -90.335210 122 1461ft 168kts
27-Mar-20 23:31 38.725492 -90.266604 84 4188ft 260kts
27-Mar-20 23:32 38.729206 -90.183061 86 7074ft 302kts
27-Mar-20 23:33 38.741297 -90.085645 82 10425ft 328kts
27-Mar-20 23:34 38.761273 -89.933804 84 13137ft 399kts
27-Mar-20 23:35 38.772883 -89.787817 89 16104ft 423kts
27-Mar-20 23:36 38.782340 -89.633117 86 18789ft 447kts
27-Mar-20 23:37 38.797643 -89.471245 82 21244ft 469kts
27-Mar-20 23:37 38.815453 -89.331457 82 23104ft 484kts
27-Mar-20 23:39 38.841444 -89.128475 82 25488ft 501kts
27-Mar-20 23:40 38.863654 -88.949258 82 27432ft 511kts
27-Mar-20 23:40 38.882539 -88.796430 82 28880ft 520kts
27-Mar-20 23:41 38.905035 -88.613009 82 30900ft 519kts
27-Mar-20 23:43 38.943826 -88.402687 69 33081ft 519kts
27-Mar-20 23:43 38.983239 -88.259707 69 34449ft 519kts
27-Mar-20 23:44 39.031944 -88.085070 69 36032ft 519kts
27-Mar-20 23:46 39.088831 -87.880280 68 37649ft 521kts
27-Mar-20 23:46 39.129092 -87.733936 68 38645ft 524kts
27-Mar-20 23:47 39.177719 -87.554290 68 38822ft 533kts
27-Mar-20 23:48 39.226248 -87.375540 68 38827ft 529kts
27-Mar-20 23:49 39.274650 -87.197100 68 38812ft 530kts
27-Mar-20 23:50 39.323052 -87.017164 68 38842ft 529kts
27-Mar-20 23:51 39.371186 -86.836794 68 38900ft 532kts
27-Mar-20 23:52 39.419123 -86.655633 69 38904ft 532kts
27-Mar-20 23:53 39.465554 -86.474680 68 38908ft 531kts
27-Mar-20 23:54 39.512546 -86.293666 69 38895ft 531kts
27-Mar-20 23:55 39.559715 -86.111917 69 38885ft 533kts
27-Mar-20 23:56 39.606577 -85.929785 69 38877ft 532kts
27-Mar-20 23:57 39.660922 -85.752194 60 38861ft 528kts
27-Mar-20 23:58 39.724959 -85.580491 59 38852ft 528kts
27-Mar-20 23:59 39.789390 -85.408660 59 38856ft 527kts
28-Mar-20 00:00 39.853496 -85.237491 59 38841ft 526kts
28-Mar-20 00:01 39.917385 -85.065918 59 38877ft 527kts
28-Mar-20 00:02 39.981057 -84.893734 59 38919ft 527kts
28-Mar-20 00:03 40.044719 -84.720569 59 38925ft 536kts
28-Mar-20 00:04 40.108462 -84.546021 58 38917ft 529kts
28-Mar-20 00:05 40.171617 -84.372136 58 38920ft 529kts
28-Mar-20 00:06 40.234364 -84.198793 59 38899ft 528kts
28-Mar-20 00:07 40.282036 -84.016747 82 38918ft 537kts
28-Mar-20 00:08 40.292554 -83.821466 86 38915ft 540kts
28-Mar-20 00:09 40.298792 -83.624635 87 38928ft 542kts
28-Mar-20 00:10 40.303938 -83.426202 87 38947ft 546kts
28-Mar-20 00:11 40.307849 -83.263508 87 38929ft 548kts
28-Mar-20 00:12 40.311964 -83.051755 87 38926ft 552kts
28-Mar-20 00:13 40.315495 -82.850371 87 38929ft 554kts
28-Mar-20 00:14 40.319018 -82.649028 86 38920ft 554kts
28-Mar-20 00:15 40.322272 -82.447536 86 38925ft 553kts
28-Mar-20 00:16 40.325311 -82.246356 87 38930ft 552kts
28-Mar-20 00:17 40.328032 -82.045180 87 38937ft 553kts
28-Mar-20 00:18 40.329378 -81.843986 87 38937ft 552kts
28-Mar-20 00:19 40.330649 -81.642445 86 38976ft 555kts
28-Mar-20 00:20 40.332036 -81.439717 86 38994ft 557kts
28-Mar-20 00:21 40.333319 -81.236185 86 38976ft 559kts
28-Mar-20 00:22 40.334257 -81.032820 86 38983ft 562kts
28-Mar-20 00:23 40.334740 -80.827715 86 38995ft 563kts
28-Mar-20 00:24 40.334846 -80.623250 86 39001ft 562kts
28-Mar-20 00:25 40.334587 -80.419223 85 39004ft 561kts
28-Mar-20 00:26 40.334133 -80.215843 86 38968ft 559kts
28-Mar-20 00:27 40.332896 -80.011464 87 38987ft 560kts
28-Mar-20 00:28 40.329793 -79.807739 86 39006ft 561kts
28-Mar-20 00:29 40.327696 -79.604549 86 39010ft 561kts
28-Mar-20 00:30 40.325542 -79.400097 85 39015ft 562kts
28-Mar-20 00:31 40.323279 -79.195807 86 38995ft 563kts
28-Mar-20 00:32 40.320573 -78.990922 86 39035ft 564kts
28-Mar-20 00:33 40.317624 -78.786478 84 39052ft 561kts
28-Mar-20 00:34 40.316595 -78.582040 83 39058ft 560kts
28-Mar-20 00:35 40.315897 -78.378325 83 39063ft 560kts
28-Mar-20 00:36 40.314780 -78.183660 84 39048ft 560kts
28-Mar-20 00:37 40.313464 -77.980204 84 39073ft 560kts
28-Mar-20 00:38 40.311471 -77.775935 84 39080ft 559kts
28-Mar-20 00:39 40.309406 -77.572302 84 39085ft 560kts
28-Mar-20 00:40 40.306769 -77.369893 84 39098ft 559kts
28-Mar-20 00:41 40.302761 -77.166677 90 39082ft 562kts
28-Mar-20 00:42 40.273775 -76.964414 101 39084ft 570kts
28-Mar-20 00:43 40.230459 -76.762521 102 37244ft 587kts
28-Mar-20 00:44 40.184923 -76.564705 102 35261ft 565kts
28-Mar-20 00:45 40.139545 -76.370115 98 32624ft 553kts
28-Mar-20 00:46 40.113762 -76.177888 90 29997ft 524kts
28-Mar-20 00:47 40.100073 -75.992669 90 27105ft 504kts
28-Mar-20 00:48 40.087171 -75.814224 91 24366ft 485kts
28-Mar-20 00:49 40.077057 -75.642710 89 22165ft 453kts
28-Mar-20 00:50 40.069324 -75.487772 95 19858ft 437kts
28-Mar-20 00:51 39.992112 -75.383145 183 15036ft 406kts
28-Mar-20 00:52 39.920368 -75.458153 250 10637ft 326kts
28-Mar-20 00:53 39.896129 -75.554413 257 9707ft 261kts
28-Mar-20 00:54 39.877601 -75.645176 255 7775ft 262kts
28-Mar-20 00:55 39.847959 -75.728308 200 5626ft 261kts
28-Mar-20 00:56 39.803767 -75.677381 103 4162ft 238kts
28-Mar-20 00:57 39.797603 -75.596324 78 3040ft 212kts
28-Mar-20 00:58 39.811004 -75.522389 74 2996ft 210kts
28-Mar-20 00:59 39.825957 -75.448267 74 2698ft 215kts
28-Mar-20 01:00 39.839931 -75.379044 74 1660ft 178kts
28-Mar-20 01:01 39.850432 -75.326862 74 857ft 135kts
28-Mar-20 01:02 39.859514 -75.281617 74 167ft 134kts
28-Mar-20 01:03 39.865544 -75.252903 53 20ft 32kts
28-Mar-20 01:04 39.868264 -75.243601 75 17ft 25kts
28-Mar-20 01:05 39.870042 -75.234659 75 14ft 24kts
28-Mar-20 01:06 39.873082 -75.230350 338 14ft 16kts
28-Mar-20 01:07 39.876316 -75.233239 336 14ft 19kts
28-Mar-20 01:08 39.876956 -75.235324 289 14ft 3kts
28-Mar-20 01:09 39.877432 -75.235892 314 14ft 0kts
28-Mar-20 01:10 39.877465 -75.235936 314 14ft 0kts
28-Mar-20 01:11 39.877465 -75.235936 314 14ft 0kts
28-Mar-20 01:12 39.877465 -75.235936 314 14ft 0kts
28-Mar-20 01:13 39.877465 -75.235936 314 14ft 0kts
28-Mar-20 01:14 39.877465 -75.235936 314 14ft 0kts
28-Mar-20 01:15 39.877465 -75.235936 314 14ft 0kts
28-Mar-20 01:16 39.877465 -75.235936 314 14ft 0kts
28-Mar-20 01:17 39.877465 -75.235936 314 14ft 0kts

Navigation Log

Ident Type
Flight plan parsing failed, navigation log unavailable